Time;durP1;ratioP1;P1;durP2;ratioP2;P2;SDS_P1;SDS_P2;PMS_P1;PMS_P2;Temp;Humidity;BMP_temperature;BMP_pressure;BME280_temperature;BME280_humidity;BME280_pressure;Samples;Min_cycle;Max_cycle;Signal;HPM_P1;HPM_P2
2023/10/14 00:02:25;;;;;;;1.87;1.13;;;15.40;99.90;;;;;;5066302;28;20724;-52
2023/10/14 00:04:55;;;;;;;0.90;0.90;;;15.40;99.90;;;;;;5062179;28;20280;-49
2023/10/14 00:07:26;;;;;;;2.87;1.20;;;15.20;99.90;;;;;;5068633;28;20681;-49
2023/10/14 00:09:57;;;;;;;1.30;1.20;;;15.00;99.90;;;;;;5062139;28;20192;-50
2023/10/14 00:12:28;;;;;;;6.40;0.90;;;14.90;99.90;;;;;;5064482;28;20222;-52
2023/10/14 00:15:03;;;;;;;0.80;0.80;;;14.90;99.90;;;;;;5070347;28;20224;-51
2023/10/14 00:17:37;;;;;;;1.90;1.03;;;14.80;99.90;;;;;;5068722;28;20696;-52
2023/10/14 00:20:09;;;;;;;1.10;1.00;;;14.70;99.90;;;;;;5066528;28;20286;-50
2023/10/14 00:22:40;;;;;;;3.20;1.50;;;14.60;99.90;;;;;;5072647;28;20217;-52
2023/10/14 00:25:18;;;;;;;4.30;1.40;;;14.40;99.90;;;;;;5063805;28;20212;-48
2023/10/14 00:27:50;;;;;;;4.73;1.87;;;14.30;99.90;;;;;;5074450;28;20804;-50
2023/10/14 00:30:20;;;;;;;6.30;1.87;;;14.20;99.90;;;;;;5071065;28;20260;-50
2023/10/14 00:32:48;;;;;;;9.17;2.13;;;14.20;99.90;;;;;;5073766;28;20312;-49
2023/10/14 00:35:19;;;;;;;5.73;2.47;;;14.10;99.90;;;;;;5071593;28;20217;-49
2023/10/14 00:37:52;;;;;;;10.13;1.73;;;14.10;99.90;;;;;;5063023;28;20582;-49
2023/10/14 00:40:23;;;;;;;6.40;2.30;;;14.00;99.90;;;;;;5064435;28;20186;-49
2023/10/14 00:42:53;;;;;;;11.70;2.50;;;13.90;99.90;;;;;;5073092;28;20249;-50
2023/10/14 00:45:21;;;;;;;7.70;2.27;;;13.90;99.90;;;;;;5073203;28;20247;-49
2023/10/14 00:47:50;;;;;;;10.20;2.50;;;13.80;99.90;;;;;;5071677;28;20225;-49
2023/10/14 00:50:33;;;;;;;13.77;2.23;;;13.80;99.90;;;;;;5069350;28;20224;-52
2023/10/14 00:53:05;;;;;;;11.13;2.40;;;13.80;99.90;;;;;;5065645;28;20325;-50
2023/10/14 00:55:52;;;;;;;7.37;2.53;;;13.80;99.90;;;;;;5068847;28;20189;-50
2023/10/14 00:58:23;;;;;;;10.17;2.67;;;13.80;99.90;;;;;;5065716;28;20210;-51
2023/10/14 01:00:58;;;;;;;8.83;3.03;;;13.80;99.90;;;;;;5066853;28;20189;-51
2023/10/14 01:03:30;;;;;;;7.40;2.23;;;13.80;99.90;;;;;;5066564;28;20221;-50
2023/10/14 01:06:06;;;;;;;12.17;2.60;;;13.70;99.90;;;;;;5064998;28;20689;-49
2023/10/14 01:08:38;;;;;;;14.87;2.80;;;13.70;99.90;;;;;;5071009;28;20724;-49
2023/10/14 01:11:07;;;;;;;9.67;2.33;;;13.70;99.90;;;;;;5072075;28;20236;-48
2023/10/14 01:13:35;;;;;;;17.63;2.73;;;13.70;99.90;;;;;;5070759;28;20200;-50
2023/10/14 01:16:08;;;;;;;9.50;2.63;;;13.70;99.90;;;;;;5070818;28;20554;-51
2023/10/14 01:18:39;;;;;;;13.27;3.03;;;13.60;99.90;;;;;;5070572;28;20335;-51
2023/10/14 01:21:08;;;;;;;8.53;2.60;;;13.60;99.90;;;;;;5066350;28;20236;-51
2023/10/14 01:23:40;;;;;;;10.53;2.80;;;13.60;99.90;;;;;;5068837;28;20578;-49
2023/10/14 01:26:10;;;;;;;12.90;2.60;;;13.60;99.90;;;;;;5067911;28;20240;-49
2023/10/14 01:28:44;;;;;;;10.40;2.60;;;13.60;99.90;;;;;;5065733;28;20234;-50
2023/10/14 01:31:34;;;;;;;14.57;2.70;;;13.60;99.90;;;;;;5070395;28;20893;-49
2023/10/14 01:34:05;;;;;;;13.33;2.83;;;13.50;99.90;;;;;;5069899;28;20221;-49
2023/10/14 01:36:37;;;;;;;10.97;2.77;;;13.50;99.90;;;;;;5069228;28;20243;-52
2023/10/14 01:39:11;;;;;;;10.70;2.37;;;13.40;99.90;;;;;;5069932;28;20228;-49
2023/10/14 01:41:40;;;;;;;8.83;2.87;;;13.40;99.90;;;;;;5069141;28;20224;-49
2023/10/14 01:44:09;;;;;;;12.57;3.30;;;13.40;99.90;;;;;;5065281;28;20316;-48
2023/10/14 01:46:41;;;;;;;17.77;3.50;;;13.30;99.90;;;;;;5069306;28;20324;-51
2023/10/14 01:49:16;;;;;;;11.73;3.20;;;13.30;99.90;;;;;;5057871;28;20644;-49
2023/10/14 01:51:48;;;;;;;10.03;3.00;;;13.30;99.90;;;;;;5063881;28;20698;-49
2023/10/14 01:54:22;;;;;;;10.70;3.20;;;13.20;99.90;;;;;;5067311;28;20213;-51
2023/10/14 01:56:51;;;;;;;8.40;2.80;;;13.20;99.90;;;;;;5062116;28;20886;-50
2023/10/14 01:59:23;;;;;;;11.70;2.87;;;13.10;99.90;;;;;;5066082;28;20717;-52
2023/10/14 02:01:57;;;;;;;14.27;3.50;;;13.10;99.90;;;;;;5063208;28;20227;-49
2023/10/14 02:04:26;;;;;;;20.07;2.97;;;13.00;99.90;;;;;;5064569;28;20195;-51
2023/10/14 02:07:13;;;;;;;9.03;2.70;;;13.00;99.90;;;;;;5067595;28;20214;-48
2023/10/14 02:09:43;;;;;;;14.17;3.10;;;12.80;99.90;;;;;;5070779;28;20212;-51
2023/10/14 02:12:12;;;;;;;11.47;2.77;;;12.80;99.90;;;;;;5067874;28;20315;-48
2023/10/14 02:14:44;;;;;;;9.90;2.90;;;12.70;99.90;;;;;;5070595;28;20623;-52
2023/10/14 02:17:12;;;;;;;14.17;2.93;;;12.60;99.90;;;;;;5068443;28;20719;-48
2023/10/14 02:19:41;;;;;;;10.50;2.73;;;12.60;99.90;;;;;;5065465;28;20222;-49
2023/10/14 02:22:10;;;;;;;9.50;2.53;;;12.50;99.90;;;;;;5067039;28;20189;-50
2023/10/14 02:24:40;;;;;;;11.73;2.57;;;12.50;99.90;;;;;;5069705;28;20264;-52
2023/10/14 02:27:11;;;;;;;13.40;3.20;;;12.40;99.90;;;;;;5065328;28;20575;-49
2023/10/14 02:29:43;;;;;;;13.27;2.50;;;12.40;99.90;;;;;;5068608;28;20707;-49
2023/10/14 02:32:12;;;;;;;10.53;2.60;;;12.30;99.90;;;;;;5066519;28;20235;-50
2023/10/14 02:34:43;;;;;;;9.07;2.50;;;12.30;99.90;;;;;;5068875;28;20232;-50
2023/10/14 02:37:14;;;;;;;10.30;2.70;;;12.20;99.90;;;;;;5069953;28;20190;-49
2023/10/14 02:39:43;;;;;;;16.37;2.43;;;12.10;99.90;;;;;;5063682;28;20831;-48
2023/10/14 02:42:16;;;;;;;13.27;2.77;;;12.10;99.90;;;;;;5061590;28;20212;-49
2023/10/14 02:44:46;;;;;;;7.20;2.50;;;12.00;99.90;;;;;;5067496;28;20326;-49
2023/10/14 02:47:17;;;;;;;12.80;2.63;;;12.00;99.90;;;;;;5070074;28;20235;-49
2023/10/14 02:49:52;;;;;;;18.00;3.00;;;11.90;99.90;;;;;;5067306;28;20323;-52
2023/10/14 02:52:28;;;;;;;10.00;2.53;;;11.90;99.90;;;;;;5066098;28;20191;-54
2023/10/14 02:55:19;;;;;;;17.30;3.33;;;11.90;99.90;;;;;;5069612;28;20195;-51
2023/10/14 02:57:48;;;;;;;9.80;3.30;;;11.80;99.90;;;;;;5068637;28;20262;-50
2023/10/14 03:00:22;;;;;;;8.27;2.63;;;11.80;99.90;;;;;;5068203;28;20278;-54
2023/10/14 03:02:54;;;;;;;11.33;2.17;;;11.80;99.90;;;;;;5069489;28;20232;-53
2023/10/14 03:05:37;;;;;;;10.37;2.83;;;11.70;99.90;;;;;;5070332;28;20274;-52
2023/10/14 03:08:10;;;;;;;11.70;2.73;;;11.70;99.90;;;;;;5068506;28;20646;-49
2023/10/14 03:10:42;;;;;;;13.20;2.50;;;11.60;99.90;;;;;;5069603;28;20616;-53
2023/10/14 03:13:12;;;;;;;8.37;2.37;;;11.50;99.90;;;;;;5062162;28;20200;-52
2023/10/14 03:15:44;;;;;;;16.13;2.87;;;11.50;99.90;;;;;;5069317;28;20224;-50
2023/10/14 03:18:16;;;;;;;11.50;2.73;;;11.50;99.90;;;;;;5065223;28;20582;-51
2023/10/14 03:20:58;;;;;;;12.67;2.27;;;11.40;99.90;;;;;;5066820;28;20235;-53
2023/10/14 03:23:28;;;;;;;10.60;1.83;;;11.40;99.90;;;;;;5068251;28;20575;-52
2023/10/14 03:26:05;;;;;;;8.17;2.50;;;11.40;99.90;;;;;;5069391;28;20211;-53
2023/10/14 03:28:37;;;;;;;6.90;2.13;;;11.40;99.90;;;;;;5062200;28;20188;-51
2023/10/14 03:31:08;;;;;;;11.80;2.27;;;11.40;99.90;;;;;;5068257;28;20184;-52
2023/10/14 03:33:42;;;;;;;10.83;2.10;;;11.30;99.90;;;;;;5069565;28;20261;-54
2023/10/14 03:36:15;;;;;;;13.23;2.50;;;11.20;99.90;;;;;;5061238;28;20263;-53
2023/10/14 03:38:46;;;;;;;8.93;2.70;;;11.20;99.90;;;;;;5068585;28;20254;-53
2023/10/14 03:41:18;;;;;;;14.97;2.90;;;11.20;99.90;;;;;;5063197;28;20215;-48
2023/10/14 03:43:54;;;;;;;8.67;2.20;;;11.20;99.90;;;;;;5062164;28;20216;-52
2023/10/14 03:46:29;;;;;;;7.53;2.20;;;11.20;99.90;;;;;;5066906;28;20203;-49
2023/10/14 03:48:58;;;;;;;10.80;2.23;;;11.10;99.90;;;;;;5064403;28;22066;-52
2023/10/14 03:51:27;;;;;;;7.13;2.17;;;11.10;99.90;;;;;;5067581;28;20220;-48
2023/10/14 03:53:56;;;;;;;8.33;2.30;;;11.10;99.90;;;;;;5069317;28;20230;-47
2023/10/14 03:56:26;;;;;;;20.53;3.10;;;11.10;99.90;;;;;;5063893;28;20220;-51
2023/10/14 03:58:57;;;;;;;13.37;2.70;;;11.10;99.90;;;;;;5069178;28;20212;-49
2023/10/14 04:01:33;;;;;;;10.63;2.80;;;11.00;99.90;;;;;;5066264;28;20340;-51
2023/10/14 04:04:14;;;;;;;9.97;2.43;;;11.00;99.90;;;;;;5070899;28;20187;-47
2023/10/14 04:06:51;;;;;;;6.23;2.30;;;11.00;99.90;;;;;;5074996;28;20220;-49
2023/10/14 04:09:24;;;;;;;11.20;3.13;;;11.00;99.90;;;;;;5066795;28;20261;-50
2023/10/14 04:11:55;;;;;;;7.83;2.37;;;10.90;99.90;;;;;;5065429;28;20611;-48
2023/10/14 04:14:28;;;;;;;6.30;2.27;;;10.90;99.90;;;;;;5062271;28;20228;-49
2023/10/14 04:17:10;;;;;;;11.73;2.60;;;10.90;99.90;;;;;;5073151;28;20227;-51
2023/10/14 04:19:46;;;;;;;11.60;2.73;;;10.90;99.90;;;;;;5073789;28;20227;-48
2023/10/14 04:22:28;;;;;;;11.00;2.43;;;10.80;99.90;;;;;;5071023;28;20222;-49
2023/10/14 04:25:18;;;;;;;9.40;2.40;;;10.80;99.90;;;;;;5069456;28;20743;-49
2023/10/14 04:28:17;;;;;;;15.07;3.10;;;10.80;99.90;;;;;;5047548;28;20213;-49
2023/10/14 04:30:47;;;;;;;8.60;2.40;;;10.80;99.90;;;;;;5068869;28;20216;-53
2023/10/14 04:33:21;;;;;;;15.83;2.90;;;10.80;99.90;;;;;;5068026;28;20227;-50
2023/10/14 04:36:09;;;;;;;12.83;2.60;;;10.80;99.90;;;;;;5062735;28;20231;-53
2023/10/14 04:38:42;;;;;;;9.53;3.03;;;10.70;99.90;;;;;;5071687;28;20273;-51
2023/10/14 04:41:14;;;;;;;15.57;2.93;;;10.70;99.90;;;;;;5073341;28;20721;-50
2023/10/14 04:44:00;;;;;;;13.17;3.30;;;10.70;99.90;;;;;;5070799;28;20220;-50
2023/10/14 04:46:46;;;;;;;10.63;2.73;;;10.70;99.90;;;;;;5079464;28;20196;-51
2023/10/14 04:49:29;;;;;;;12.50;3.03;;;10.80;99.90;;;;;;5061707;28;20184;-50
2023/10/14 04:51:58;;;;;;;11.33;2.70;;;10.70;99.90;;;;;;5073468;28;20676;-49
2023/10/14 04:54:27;;;;;;;11.40;3.43;;;10.70;99.90;;;;;;5068309;28;20242;-51
2023/10/14 04:56:57;;;;;;;5.37;2.57;;;10.70;99.90;;;;;;5066436;28;20254;-50
2023/10/14 04:59:27;;;;;;;7.63;2.73;;;10.70;99.90;;;;;;5069457;28;20260;-53
2023/10/14 05:01:57;;;;;;;10.73;3.30;;;10.70;99.90;;;;;;5068978;28;20259;-51
2023/10/14 05:04:30;;;;;;;8.83;2.90;;;10.70;99.90;;;;;;5071065;28;20545;-51
2023/10/14 05:07:04;;;;;;;9.70;2.53;;;10.70;99.90;;;;;;5066514;28;20180;-50
2023/10/14 05:09:39;;;;;;;10.07;2.77;;;10.60;99.90;;;;;;5065210;28;20216;-48
2023/10/14 05:12:10;;;;;;;11.93;2.40;;;10.60;99.90;;;;;;5064933;28;20306;-49
2023/10/14 05:14:38;;;;;;;11.83;2.43;;;10.60;99.90;;;;;;5069372;28;20223;-53
2023/10/14 05:17:16;;;;;;;9.40;2.97;;;10.60;99.90;;;;;;5071124;28;20238;-52
2023/10/14 05:19:54;;;;;;;9.20;2.60;;;10.60;99.90;;;;;;5070468;28;20219;-52
2023/10/14 05:22:26;;;;;;;7.97;2.57;;;10.60;99.90;;;;;;5064296;28;20689;-50
2023/10/14 05:25:02;;;;;;;10.13;2.70;;;10.60;99.90;;;;;;5067058;28;20188;-49
2023/10/14 05:27:45;;;;;;;11.40;2.87;;;10.60;99.90;;;;;;5065309;28;20215;-49
2023/10/14 05:30:21;;;;;;;11.03;2.87;;;10.60;99.90;;;;;;5065279;28;20219;-52
2023/10/14 05:32:52;;;;;;;15.10;2.50;;;10.60;99.90;;;;;;5066694;28;20252;-51
2023/10/14 05:35:22;;;;;;;13.00;2.70;;;10.50;99.90;;;;;;5071062;28;20230;-53
2023/10/14 05:37:51;;;;;;;11.70;2.60;;;10.50;99.90;;;;;;5070403;28;20235;-51
2023/10/14 05:40:21;;;;;;;14.30;2.63;;;10.40;99.90;;;;;;5069101;28;20192;-51
2023/10/14 05:42:50;;;;;;;8.47;2.43;;;10.40;99.90;;;;;;5065776;28;20200;-54
2023/10/14 05:45:21;;;;;;;5.77;2.53;;;10.40;99.90;;;;;;5068584;28;20220;-53
2023/10/14 05:47:51;;;;;;;10.83;2.50;;;10.30;99.90;;;;;;5069619;28;20220;-53
2023/10/14 05:50:19;;;;;;;12.67;2.70;;;10.30;99.90;;;;;;5064924;28;20224;-53
2023/10/14 05:52:49;;;;;;;8.53;2.40;;;10.30;99.90;;;;;;5069366;28;20231;-51
2023/10/14 05:55:20;;;;;;;10.13;2.80;;;10.20;99.90;;;;;;5069246;28;20542;-49
2023/10/14 05:57:49;;;;;;;9.20;2.60;;;10.20;99.90;;;;;;5066817;28;20732;-51
2023/10/14 06:00:25;;;;;;;9.67;2.60;;;10.20;99.90;;;;;;5065526;28;20223;-53
2023/10/14 06:02:57;;;;;;;13.50;3.00;;;10.20;99.90;;;;;;5058254;28;20234;-53
2023/10/14 06:05:26;;;;;;;13.13;2.80;;;10.20;99.90;;;;;;5065023;28;20435;-52
2023/10/14 06:08:05;;;;;;;7.70;2.47;;;10.20;99.90;;;;;;5063329;28;20269;-51
2023/10/14 06:10:37;;;;;;;11.10;2.97;;;10.20;99.90;;;;;;5066277;28;20203;-50
2023/10/14 06:13:06;;;;;;;12.67;2.57;;;10.20;99.90;;;;;;5070878;28;20192;-49
2023/10/14 06:15:38;;;;;;;12.47;2.93;;;10.20;99.90;;;;;;5061421;28;20272;-53
2023/10/14 06:18:09;;;;;;;9.53;2.57;;;10.20;99.90;;;;;;5073373;28;20208;-54
2023/10/14 06:20:37;;;;;;;9.10;2.83;;;10.20;99.90;;;;;;5069230;28;20236;-55
2023/10/14 06:23:08;;;;;;;14.93;2.83;;;10.20;99.90;;;;;;5070370;28;20220;-53
2023/10/14 06:25:38;;;;;;;15.13;2.73;;;10.20;99.90;;;;;;5064225;28;20297;-52
2023/10/14 06:28:10;;;;;;;8.73;2.80;;;10.20;99.90;;;;;;5066364;28;20200;-50
2023/10/14 06:30:38;;;;;;;9.20;2.53;;;10.30;99.90;;;;;;5066965;28;20223;-52
2023/10/14 06:33:08;;;;;;;7.43;2.80;;;10.20;99.90;;;;;;5065357;28;20235;-53
2023/10/14 06:35:42;;;;;;;11.80;3.10;;;10.20;99.90;;;;;;5071780;28;20215;-54
2023/10/14 06:38:11;;;;;;;8.87;2.87;;;10.20;99.90;;;;;;5070654;28;20294;-51
2023/10/14 06:40:42;;;;;;;13.63;2.70;;;10.30;99.90;;;;;;5065646;28;20582;-54
2023/10/14 06:43:10;;;;;;;11.43;2.93;;;10.40;99.90;;;;;;5065171;28;20586;-54
2023/10/14 06:45:41;;;;;;;12.40;2.60;;;10.40;99.90;;;;;;5066208;28;20234;-52
2023/10/14 06:48:11;;;;;;;9.60;2.93;;;10.40;99.90;;;;;;5066938;28;20223;-53
2023/10/14 06:50:41;;;;;;;10.60;2.53;;;10.40;99.90;;;;;;5067402;28;20216;-53
2023/10/14 06:53:11;;;;;;;12.87;2.50;;;10.40;99.90;;;;;;5063874;28;20315;-54
2023/10/14 06:55:40;;;;;;;8.60;2.60;;;10.40;99.90;;;;;;5069978;28;20303;-53
2023/10/14 06:58:09;;;;;;;11.90;2.50;;;10.40;99.90;;;;;;5068904;28;20227;-51
2023/10/14 07:00:39;;;;;;;15.37;3.00;;;10.40;99.90;;;;;;5067589;28;20773;-51
2023/10/14 07:03:12;;;;;;;15.50;3.23;;;10.50;99.90;;;;;;5068651;28;20223;-54
2023/10/14 07:05:48;;;;;;;15.07;2.77;;;10.50;99.90;;;;;;5062558;28;20251;-52
2023/10/14 07:08:19;;;;;;;8.90;2.53;;;10.60;99.90;;;;;;5070031;28;20230;-53
2023/10/14 07:10:50;;;;;;;14.00;3.03;;;10.70;99.90;;;;;;5069055;28;20224;-50
2023/10/14 07:13:19;;;;;;;5.97;2.50;;;10.80;99.90;;;;;;5068992;28;20268;-53
2023/10/14 07:15:48;;;;;;;8.73;2.80;;;10.90;99.90;;;;;;5069562;28;20710;-52
2023/10/14 07:18:22;;;;;;;11.90;2.67;;;11.10;99.90;;;;;;5060056;28;20248;-50
2023/10/14 07:21:00;;;;;;;8.40;2.80;;;11.20;99.90;;;;;;5066102;28;20358;-54
2023/10/14 07:23:33;;;;;;;13.50;2.97;;;11.20;99.90;;;;;;5069632;28;20227;-53
2023/10/14 07:26:09;;;;;;;9.00;2.43;;;11.30;99.90;;;;;;5069043;28;20220;-55
2023/10/14 07:28:42;;;;;;;8.43;2.40;;;11.40;99.90;;;;;;5072349;28;20243;-51
2023/10/14 07:31:11;;;;;;;11.13;3.10;;;11.50;99.90;;;;;;5067096;28;20218;-52
2023/10/14 07:33:40;;;;;;;7.80;2.43;;;11.60;99.90;;;;;;5071818;28;20303;-53
2023/10/14 07:36:12;;;;;;;9.40;3.00;;;11.80;99.90;;;;;;5072073;28;20212;-54
2023/10/14 07:38:42;;;;;;;12.43;2.73;;;11.90;99.90;;;;;;5066632;28;20677;-54
2023/10/14 07:41:12;;;;;;;10.47;2.80;;;12.00;99.90;;;;;;5058588;28;20227;-54
2023/10/14 07:43:41;;;;;;;14.23;2.60;;;12.10;99.90;;;;;;5058339;28;20562;-54
2023/10/14 07:46:11;;;;;;;10.97;2.77;;;12.20;99.90;;;;;;5072001;28;20189;-53
2023/10/14 07:48:40;;;;;;;14.63;3.20;;;12.30;99.90;;;;;;5069240;28;20763;-53
2023/10/14 07:51:10;;;;;;;8.17;2.53;;;12.30;99.90;;;;;;5064305;28;20230;-53
2023/10/14 07:53:56;;;;;;;10.37;2.73;;;12.40;99.90;;;;;;5069416;28;20219;-53
2023/10/14 07:56:25;;;;;;;10.60;2.50;;;12.40;99.90;;;;;;5064620;28;20216;-55
2023/10/14 07:58:55;;;;;;;11.53;2.37;;;12.50;99.90;;;;;;5065119;28;20291;-53
2023/10/14 08:01:25;;;;;;;10.90;2.67;;;12.50;99.90;;;;;;5065375;28;20277;-53
2023/10/14 08:03:56;;;;;;;10.37;2.63;;;12.50;99.90;;;;;;5064099;28;20192;-50
2023/10/14 08:06:27;;;;;;;9.80;2.40;;;12.60;99.90;;;;;;5061990;28;20226;-52
2023/10/14 08:08:56;;;;;;;10.73;2.50;;;12.60;99.90;;;;;;5067098;28;20262;-53
2023/10/14 08:11:28;;;;;;;12.97;2.70;;;12.60;99.90;;;;;;5062714;28;20598;-53
2023/10/14 08:13:57;;;;;;;18.13;2.70;;;12.60;99.90;;;;;;5065506;28;20277;-53
2023/10/14 08:16:27;;;;;;;9.23;2.50;;;12.60;99.90;;;;;;5067790;28;20188;-54
2023/10/14 08:18:55;;;;;;;9.37;2.40;;;12.60;99.90;;;;;;5063645;28;20216;-53
2023/10/14 08:21:24;;;;;;;15.27;3.10;;;12.60;99.90;;;;;;5073312;28;20231;-52
2023/10/14 08:23:53;;;;;;;7.47;2.43;;;12.60;99.90;;;;;;5074370;28;20714;-50
2023/10/14 08:26:26;;;;;;;12.30;2.30;;;12.70;99.90;;;;;;5066826;28;20346;-53
2023/10/14 08:28:59;;;;;;;11.13;2.40;;;12.80;99.90;;;;;;5071369;28;20230;-53
2023/10/14 08:31:29;;;;;;;10.27;2.43;;;12.90;99.90;;;;;;5060831;28;20189;-52
2023/10/14 08:33:57;;;;;;;16.20;2.90;;;13.00;99.90;;;;;;5069252;28;20288;-54
2023/10/14 08:36:26;;;;;;;11.87;2.63;;;13.10;99.90;;;;;;5071210;28;20221;-52
2023/10/14 08:38:58;;;;;;;9.50;3.03;;;13.10;99.90;;;;;;5073654;28;20696;-51
2023/10/14 08:41:27;;;;;;;13.77;2.50;;;13.10;99.90;;;;;;5066397;28;20255;-50
2023/10/14 08:44:00;;;;;;;20.37;3.17;;;13.10;99.90;;;;;;5071520;28;20307;-53
2023/10/14 08:46:35;;;;;;;9.30;2.60;;;13.00;99.90;;;;;;5068084;28;20200;-55
2023/10/14 08:49:07;;;;;;;12.80;2.73;;;13.10;99.90;;;;;;5069228;28;20180;-55
2023/10/14 08:51:39;;;;;;;13.33;3.20;;;13.20;99.90;;;;;;5070416;28;20223;-52
2023/10/14 08:54:25;;;;;;;10.20;2.47;;;13.40;99.90;;;;;;5069987;28;20305;-50
2023/10/14 08:56:54;;;;;;;14.07;2.80;;;13.50;99.90;;;;;;5068345;28;20247;-52
2023/10/14 08:59:23;;;;;;;12.40;2.50;;;13.60;99.90;;;;;;5064406;28;20209;-53
2023/10/14 09:01:56;;;;;;;13.07;3.63;;;13.60;99.90;;;;;;5069520;28;20220;-53
2023/10/14 09:04:29;;;;;;;11.97;3.13;;;13.70;99.90;;;;;;5067115;28;20205;-55
2023/10/14 09:07:02;;;;;;;12.07;2.90;;;13.80;99.90;;;;;;5073481;28;20620;-52
2023/10/14 09:09:33;;;;;;;12.43;2.77;;;13.70;99.90;;;;;;5069213;28;20232;-53
2023/10/14 09:12:10;;;;;;;11.13;2.60;;;13.80;99.90;;;;;;5071675;28;20232;-52
2023/10/14 09:14:40;;;;;;;12.93;2.90;;;13.90;99.90;;;;;;5068837;28;20216;-55
2023/10/14 09:17:09;;;;;;;10.20;2.63;;;13.90;99.90;;;;;;5065765;28;20279;-52
2023/10/14 09:19:47;;;;;;;9.00;2.97;;;13.90;99.90;;;;;;5067603;28;20227;-53
2023/10/14 09:22:21;;;;;;;10.73;2.60;;;14.00;99.90;;;;;;5066723;28;20192;-54
2023/10/14 09:24:52;;;;;;;12.70;2.73;;;14.00;99.90;;;;;;5072964;28;20223;-56
2023/10/14 09:27:22;;;;;;;8.57;3.10;;;14.00;99.90;;;;;;5068041;28;20284;-55
2023/10/14 09:29:50;;;;;;;14.27;2.87;;;14.10;99.90;;;;;;5065699;28;20218;-54
2023/10/14 09:32:18;;;;;;;15.03;3.20;;;14.20;99.90;;;;;;5060957;28;20220;-53
2023/10/14 09:34:47;;;;;;;8.50;3.00;;;14.30;99.90;;;;;;5071388;28;20242;-52
2023/10/14 09:37:17;;;;;;;16.50;3.00;;;14.30;99.90;;;;;;5065191;28;20217;-54
2023/10/14 09:39:57;;;;;;;11.70;3.03;;;14.50;99.90;;;;;;5072630;28;20210;-54
2023/10/14 09:42:33;;;;;;;13.37;2.90;;;14.50;99.90;;;;;;5068964;28;20239;-53
2023/10/14 09:45:10;;;;;;;7.33;2.63;;;14.70;99.90;;;;;;5070274;28;20226;-52
2023/10/14 09:47:45;;;;;;;10.63;3.20;;;14.70;99.90;;;;;;5066041;28;20216;-53
2023/10/14 09:50:16;;;;;;;18.30;3.03;;;14.70;99.90;;;;;;5073403;28;20224;-52
2023/10/14 09:52:47;;;;;;;9.67;2.77;;;14.60;99.90;;;;;;5066443;28;20283;-53
2023/10/14 09:55:17;;;;;;;11.60;2.70;;;14.60;99.90;;;;;;5073962;28;20198;-54
2023/10/14 09:57:46;;;;;;;11.57;3.00;;;14.70;99.90;;;;;;5063099;28;20247;-52
2023/10/14 10:00:16;;;;;;;8.63;2.37;;;14.70;99.90;;;;;;5069121;28;20683;-52
2023/10/14 10:02:48;;;;;;;12.63;2.53;;;14.80;99.90;;;;;;5064032;28;20655;-53
2023/10/14 10:05:21;;;;;;;14.60;2.93;;;14.90;99.90;;;;;;5069799;28;20230;-54
2023/10/14 10:07:59;;;;;;;15.13;2.70;;;14.90;99.90;;;;;;5066435;28;20248;-55
2023/10/14 10:10:31;;;;;;;12.27;2.77;;;15.00;99.90;;;;;;5062336;28;20553;-51
2023/10/14 10:13:01;;;;;;;11.00;2.67;;;15.30;99.90;;;;;;5069453;28;20194;-53
2023/10/14 10:15:35;;;;;;;8.70;2.90;;;15.60;99.90;;;;;;5068949;28;20265;-54
2023/10/14 10:18:05;;;;;;;12.40;2.53;;;15.40;99.90;;;;;;5068470;28;20855;-52
2023/10/14 10:20:36;;;;;;;14.70;3.17;;;15.30;99.90;;;;;;5067293;28;20230;-54
2023/10/14 10:23:09;;;;;;;9.33;3.10;;;15.30;99.90;;;;;;5068774;28;20676;-53
2023/10/14 10:25:57;;;;;;;6.30;2.57;;;15.20;99.90;;;;;;5067573;28;20250;-53
2023/10/14 10:28:39;;;;;;;19.83;3.20;;;15.00;99.90;;;;;;5063623;28;20690;-54
2023/10/14 10:31:11;;;;;;;14.77;3.17;;;14.80;99.90;;;;;;5065433;28;20211;-54
2023/10/14 10:33:57;;;;;;;7.60;2.50;;;14.60;99.90;;;;;;5066126;28;20209;-54
2023/10/14 10:36:27;;;;;;;16.27;2.83;;;14.40;99.90;;;;;;5063236;28;20589;-55
2023/10/14 10:39:05;;;;;;;14.07;2.87;;;14.20;99.90;;;;;;5059069;28;20727;-53
2023/10/14 10:41:38;;;;;;;10.83;2.90;;;14.10;99.90;;;;;;5078074;28;20213;-53
2023/10/14 10:44:09;;;;;;;13.50;2.50;;;14.00;99.90;;;;;;5069025;28;20219;-52
2023/10/14 10:46:39;;;;;;;14.83;3.07;;;13.90;99.90;;;;;;5063483;28;20843;-52
2023/10/14 10:49:10;;;;;;;5.67;2.27;;;13.90;99.90;;;;;;5057276;28;20315;-50
2023/10/14 10:51:50;;;;;;;14.90;2.57;;;14.20;99.90;;;;;;5067732;28;20219;-56
2023/10/14 10:54:22;;;;;;;22.17;3.10;;;14.60;99.90;;;;;;5065426;28;20213;-54
2023/10/14 10:56:53;;;;;;;18.90;3.07;;;15.00;99.90;;;;;;5069764;28;20231;-53
2023/10/14 10:59:37;;;;;;;9.00;2.07;;;15.20;99.90;;;;;;5066815;28;20692;-53
2023/10/14 11:02:07;;;;;;;9.17;2.30;;;15.30;99.90;;;;;;5066398;28;20212;-55
2023/10/14 11:04:36;;;;;;;4.47;1.73;;;15.20;99.90;;;;;;5064425;28;20245;-53
2023/10/14 11:07:06;;;;;;;5.27;1.60;;;15.00;99.90;;;;;;5061734;28;20190;-55
2023/10/14 11:09:39;;;;;;;2.87;1.43;;;14.90;99.90;;;;;;5060986;28;20213;-54
2023/10/14 11:12:11;;;;;;;4.57;1.63;;;15.10;99.90;;;;;;5055655;28;20230;-53
2023/10/14 11:14:39;;;;;;;10.00;1.70;;;15.20;99.90;;;;;;5064049;28;20219;-54
2023/10/14 11:17:13;;;;;;;10.10;2.23;;;15.20;99.90;;;;;;5065395;28;20593;-53
2023/10/14 11:19:43;;;;;;;8.07;1.97;;;15.20;99.90;;;;;;5068023;28;20291;-51
2023/10/14 11:22:12;;;;;;;7.30;2.30;;;14.90;99.90;;;;;;5066134;28;20280;-52
2023/10/14 11:24:42;;;;;;;5.47;1.97;;;14.80;99.90;;;;;;5071020;28;20225;-53
2023/10/14 11:27:12;;;;;;;6.50;2.10;;;15.00;99.90;;;;;;5068586;28;20222;-53
2023/10/14 11:29:41;;;;;;;7.37;2.20;;;15.50;99.90;;;;;;5065604;28;20224;-54
2023/10/14 11:32:12;;;;;;;6.20;1.97;;;15.80;99.90;;;;;;5067630;28;20288;-53
2023/10/14 11:34:52;;;;;;;11.00;2.63;;;15.80;99.90;;;;;;5070027;28;20231;-53
2023/10/14 11:37:20;;;;;;;16.53;2.73;;;15.70;99.90;;;;;;5078343;28;20234;-52
2023/10/14 11:39:48;;;;;;;11.07;3.00;;;15.70;99.90;;;;;;5066316;28;20572;-55
2023/10/14 11:42:18;;;;;;;11.90;2.50;;;15.70;99.90;;;;;;5066446;28;20594;-54
2023/10/14 11:44:50;;;;;;;7.07;2.10;;;15.90;99.90;;;;;;5067424;28;20222;-55
2023/10/14 11:47:18;;;;;;;4.03;1.60;;;16.10;99.90;;;;;;5066146;28;20281;-53
2023/10/14 11:49:49;;;;;;;10.53;2.80;;;15.80;99.90;;;;;;5069732;28;20223;-51
2023/10/14 11:52:23;;;;;;;8.77;2.20;;;15.70;99.90;;;;;;5063968;28;20224;-54
2023/10/14 11:54:52;;;;;;;12.33;2.40;;;15.70;99.90;;;;;;5069084;28;20206;-53
2023/10/14 11:57:22;;;;;;;11.67;2.50;;;15.40;99.90;;;;;;5060781;28;20792;-53
2023/10/14 11:59:51;;;;;;;10.50;2.17;;;15.30;99.90;;;;;;5064319;28;20302;-54
2023/10/14 12:02:19;;;;;;;10.93;2.00;;;15.20;99.90;;;;;;5066223;28;20649;-52
2023/10/14 12:04:47;;;;;;;11.70;2.70;;;15.00;99.90;;;;;;5065581;28;20266;-55
2023/10/14 12:07:17;;;;;;;6.60;2.20;;;15.20;99.90;;;;;;5064945;28;20574;-54
2023/10/14 12:09:45;;;;;;;7.43;2.27;;;15.50;99.90;;;;;;5067280;28;20228;-54
2023/10/14 12:12:14;;;;;;;11.03;2.50;;;15.60;99.90;;;;;;5067802;28;20583;-54
2023/10/14 12:14:43;;;;;;;11.20;2.20;;;15.60;99.90;;;;;;5067022;28;20214;-55
2023/10/14 12:17:12;;;;;;;10.93;2.80;;;15.50;99.90;;;;;;5069943;28;20226;-53
2023/10/14 12:19:41;;;;;;;11.30;2.50;;;15.50;99.90;;;;;;5069002;28;20222;-54
2023/10/14 12:22:09;;;;;;;8.70;2.30;;;15.30;99.90;;;;;;5070795;28;20187;-54
2023/10/14 12:24:37;;;;;;;10.13;2.37;;;15.20;99.90;;;;;;5064808;28;20428;-55
2023/10/14 12:27:13;;;;;;;7.33;2.23;;;14.80;99.90;;;;;;5074648;28;20215;-53
2023/10/14 12:29:43;;;;;;;10.87;2.20;;;14.50;99.90;;;;;;5069204;28;20341;-51
2023/10/14 12:32:15;;;;;;;7.40;2.20;;;14.30;99.90;;;;;;5064616;28;20414;-53
2023/10/14 12:35:11;;;;;;;6.40;2.37;;;14.10;99.90;;;;;;5069747;28;20225;-53
2023/10/14 12:37:40;;;;;;;9.50;2.07;;;13.90;99.90;;;;;;5065577;28;20222;-53
2023/10/14 12:40:11;;;;;;;14.27;2.80;;;13.90;99.90;;;;;;5071939;28;20199;-51
2023/10/14 12:42:46;;;;;;;10.47;2.40;;;14.00;99.90;;;;;;5072166;28;20601;-48
2023/10/14 12:45:23;;;;;;;9.07;2.73;;;14.30;99.90;;;;;;5071300;28;20220;-53
2023/10/14 12:47:55;;;;;;;8.50;2.10;;;14.90;99.90;;;;;;5066897;28;20299;-53
2023/10/14 12:50:25;;;;;;;7.23;2.20;;;15.10;99.90;;;;;;5065147;28;20229;-54
2023/10/14 12:52:58;;;;;;;7.03;2.03;;;15.00;99.90;;;;;;5072096;28;20230;-51
2023/10/14 12:55:26;;;;;;;9.70;2.30;;;15.00;99.90;;;;;;5067615;28;20224;-54
2023/10/14 12:57:57;;;;;;;10.10;2.13;;;15.00;99.90;;;;;;5067662;28;20196;-53
2023/10/14 13:00:29;;;;;;;8.13;2.07;;;14.70;99.90;;;;;;5069203;28;20338;-54
2023/10/14 13:02:58;;;;;;;9.47;2.17;;;14.40;99.90;;;;;;5066379;28;20222;-53
2023/10/14 13:05:27;;;;;;;4.53;2.00;;;14.30;99.90;;;;;;5068104;28;20629;-54
2023/10/14 13:07:57;;;;;;;12.53;2.50;;;14.30;99.90;;;;;;5067989;28;20750;-55